ZWWW/URC METAR and TAF weather

Enter ICAO airport designator
Station Type Date Time Source
ZWWW METAR 2021/01/22 06:00 UTC NOAA

ZWWW 220600Z 32001MPS 1200 R25/1100N BR NSC M10/M13 Q1008 NOSIG


Station Type Date Time Source
ZWWW Decoded METAR 2021/01/22 06:00 UTC NOAA

Urum-Qi / Diwopu, China (ZWWW) 43-54N 087-28E
Jan 22, 2021 - 01:00 AM EST / 2021.01.22 0600 UTC
Wind: from the NW (320 degrees) at 2 MPH (2 KT):0
Visibility: less than 1 mile:0
Weather: mist
Temperature: 14 F (-10 C)
Dew Point: 8 F (-13 C)
Relative Humidity: 78%
Pressure (altimeter): 29.77 in. Hg (1008 hPa)
ob: ZWWW 220600Z 32001MPS 1200 R25/1100N BR NSC M10/M13 Q1008 NOSIG
cycle: 6

Station Type Date Time Source
ZWWW TAF 2021/01/22 06:03 UTC NOAA

TAF ZWWW 220308Z 2206/2306 36002MPS 1200 BR NSC TXM07/2208Z TNM14/2223Z
BECMG 2207/2208 1600
BECMG 2217/2218 1200 -SN BR BKN011
TEMPO 2300/2306 0700 SN FZFG BKN005

Example: see airport list